createdAt,value
2018-06-10T00:01:45.412Z,44.17
2018-06-10T00:04:16.882Z,44.67
2018-06-10T00:06:47.127Z,44.00
2018-06-10T00:09:19.737Z,44.17
2018-06-10T00:11:50.594Z,44.07
2018-06-10T00:14:21.001Z,44.93
2018-06-10T00:16:51.796Z,44.67
2018-06-10T00:19:22.984Z,44.33
2018-06-10T00:21:53.632Z,44.97
2018-06-10T00:24:23.983Z,44.57
2018-06-10T00:26:53.978Z,44.37
2018-06-10T00:29:24.785Z,44.47
2018-06-10T00:31:55.754Z,44.07
2018-06-10T00:34:26.488Z,44.70
2018-06-10T00:36:56.755Z,44.73
2018-06-10T00:39:27.128Z,43.83
2018-06-10T00:41:57.484Z,44.50
2018-06-10T00:44:27.983Z,43.70
2018-06-10T00:46:58.340Z,44.63
2018-06-10T00:49:28.493Z,44.53
2018-06-10T00:51:58.801Z,43.93
2018-06-10T00:54:30.533Z,44.20
2018-06-10T00:57:00.765Z,44.13
2018-06-10T00:59:31.298Z,44.63
2018-06-10T01:02:01.826Z,43.20
2018-06-10T01:04:32.322Z,44.13
2018-06-10T01:07:03.734Z,44.67
2018-06-10T01:09:34.188Z,44.83
2018-06-10T01:12:04.548Z,43.20
2018-06-10T01:14:34.685Z,44.03
2018-06-10T01:17:06.131Z,44.53
2018-06-10T01:19:37.476Z,43.83
2018-06-10T01:22:09.633Z,44.00
2018-06-10T01:24:41.457Z,44.27
2018-06-10T01:27:12.625Z,44.23
2018-06-10T01:29:43.285Z,44.83
2018-06-10T01:32:14.641Z,45.60
2018-06-10T01:34:45.209Z,44.80
2018-06-10T01:37:15.113Z,45.40
2018-06-10T01:39:45.684Z,45.03
2018-06-10T01:42:17.337Z,44.80
2018-06-10T01:44:48.198Z,44.50
2018-06-10T01:47:18.372Z,44.50
2018-06-10T01:49:50.086Z,44.73
2018-06-10T01:52:20.302Z,44.27
2018-06-10T01:54:50.468Z,44.43
2018-06-10T01:57:27.103Z,44.40
2018-06-10T01:59:57.788Z,44.30
2018-06-10T02:02:28.692Z,43.77
2018-06-10T02:04:58.870Z,43.03
2018-06-10T02:07:29.065Z,44.20
2018-06-10T02:09:59.194Z,43.33
2018-06-10T02:12:29.547Z,43.60
2018-06-10T02:14:59.709Z,43.70
2018-06-10T02:17:30.123Z,43.33
2018-06-10T02:20:00.426Z,43.43
2018-06-10T02:22:30.657Z,48.40
2018-06-10T02:25:01.381Z,44.97
2018-06-10T02:27:31.883Z,43.80
2018-06-10T02:30:02.039Z,44.20
2018-06-10T02:32:32.214Z,44.00
2018-06-10T02:35:03.306Z,44.13
2018-06-10T02:37:33.514Z,44.97
2018-06-10T02:40:03.786Z,43.67
2018-06-10T02:42:33.935Z,43.87
2018-06-10T02:45:04.481Z,43.60
2018-06-10T02:47:34.816Z,43.73
2018-06-10T02:50:05.473Z,43.53
2018-06-10T02:52:35.701Z,44.00
2018-06-10T02:55:06.221Z,44.87
2018-06-10T02:57:36.689Z,44.33
2018-06-10T03:00:06.768Z,43.77
2018-06-10T03:02:37.814Z,43.10
2018-06-10T03:05:08.193Z,44.40
2018-06-10T03:07:38.619Z,44.60
2018-06-10T03:10:08.790Z,44.73
2018-06-10T03:12:46.192Z,44.70
2018-06-10T03:15:16.313Z,43.93
2018-06-10T03:17:47.006Z,44.10
2018-06-10T03:20:17.036Z,43.87
2018-06-10T03:22:47.727Z,44.10
2018-06-10T03:25:18.148Z,43.77
2018-06-10T03:27:48.478Z,43.87
2018-06-10T03:30:18.608Z,44.03
2018-06-10T03:32:48.946Z,43.97
2018-06-10T03:35:19.414Z,44.20
2018-06-10T03:37:53.718Z,44.10
2018-06-10T03:40:23.916Z,44.53
2018-06-10T03:42:54.612Z,44.73
2018-06-10T03:45:24.937Z,45.00
2018-06-10T03:47:55.064Z,44.07
2018-06-10T03:50:25.357Z,44.53
2018-06-10T03:52:55.897Z,44.17
2018-06-10T03:55:26.122Z,44.13
2018-06-10T03:57:56.357Z,44.57
2018-06-10T04:00:26.482Z,44.00
2018-06-10T04:02:57.924Z,44.47
2018-06-10T04:05:28.266Z,43.93
2018-06-10T04:07:58.706Z,43.67
2018-06-10T04:10:29.047Z,44.63
2018-06-10T04:12:59.361Z,44.17
2018-06-10T04:15:29.317Z,44.00
2018-06-10T04:18:00.287Z,43.23
2018-06-10T04:20:32.286Z,43.37
2018-06-10T04:23:02.625Z,44.00
2018-06-10T04:25:32.956Z,44.23
2018-06-10T04:28:05.736Z,43.70
2018-06-10T04:30:36.518Z,43.30
2018-06-10T04:33:06.838Z,44.43
2018-06-10T04:35:37.525Z,43.37
2018-06-10T04:38:08.577Z,43.83
2018-06-10T04:40:39.042Z,43.20
2018-06-10T04:43:09.427Z,43.03
2018-06-10T04:45:40.544Z,43.77
2018-06-10T04:48:10.668Z,45.07
2018-06-10T04:50:41.033Z,44.17
2018-06-10T04:53:11.992Z,44.80
2018-06-10T04:55:42.426Z,45.20
2018-06-10T04:58:12.475Z,43.73
2018-06-10T05:00:43.115Z,44.23
2018-06-10T05:03:13.501Z,43.43
2018-06-10T05:05:45.775Z,43.83
2018-06-10T05:08:16.097Z,43.77
2018-06-10T05:10:46.913Z,43.63
2018-06-10T05:13:18.630Z,43.77
2018-06-10T05:15:49.320Z,44.23
2018-06-10T05:18:20.030Z,43.77
2018-06-10T05:20:50.589Z,44.10
2018-06-10T05:23:20.671Z,44.70
2018-06-10T05:25:50.792Z,44.93
2018-06-10T05:28:21.463Z,45.37
2018-06-10T05:30:53.271Z,44.47
2018-06-10T05:33:23.681Z,45.07
2018-06-10T05:35:54.276Z,45.73
2018-06-10T05:38:24.974Z,46.83
2018-06-10T05:40:55.572Z,48.17
2018-06-10T05:43:26.097Z,51.80
2018-06-10T05:45:56.834Z,52.33
2018-06-10T05:48:27.691Z,53.97
2018-06-10T05:50:57.802Z,49.67
2018-06-10T05:53:28.109Z,48.47
2018-06-10T05:55:58.310Z,46.97
2018-06-10T05:58:29.585Z,46.60
2018-06-10T06:01:00.027Z,46.33
2018-06-10T06:03:30.746Z,45.23
2018-06-10T06:06:01.488Z,45.37
2018-06-10T06:08:32.831Z,45.40
2018-06-10T06:11:03.493Z,45.67
2018-06-10T06:13:34.661Z,46.30
2018-06-10T06:16:05.282Z,45.10
2018-06-10T06:18:35.562Z,45.43
2018-06-10T06:21:06.290Z,45.00
2018-06-10T06:23:37.994Z,45.17
2018-06-10T06:26:09.337Z,45.47
2018-06-10T06:28:39.693Z,45.20
2018-06-10T06:31:10.703Z,45.40
2018-06-10T06:33:41.842Z,44.27
2018-06-10T06:36:12.279Z,44.37
2018-06-10T06:38:42.467Z,44.97
2018-06-10T06:41:14.628Z,44.47
2018-06-10T06:43:45.124Z,43.77
2018-06-10T06:46:16.298Z,44.30
2018-06-10T06:48:46.506Z,43.97
2018-06-10T06:51:17.605Z,44.70
2018-06-10T06:53:48.305Z,43.93
2018-06-10T06:56:18.422Z,43.73
2018-06-10T06:58:48.506Z,44.07
2018-06-10T07:01:19.101Z,53.47
2018-06-10T07:03:49.399Z,44.13
2018-06-10T07:06:20.150Z,44.00
2018-06-10T07:08:51.350Z,43.70
2018-06-10T07:11:21.876Z,44.50
2018-06-10T07:13:52.125Z,45.33
2018-06-10T07:16:22.848Z,44.53
2018-06-10T07:18:53.621Z,45.17
2018-06-10T07:21:23.942Z,44.83
2018-06-10T07:23:54.344Z,45.57
2018-06-10T07:26:26.657Z,46.60
2018-06-10T07:28:57.025Z,47.40
2018-06-10T07:31:27.352Z,47.80
2018-06-10T07:33:57.614Z,48.57
2018-06-10T07:36:27.648Z,48.53
2018-06-10T07:38:58.066Z,50.30
2018-06-10T07:41:28.285Z,49.67
2018-06-10T07:43:59.301Z,48.90
2018-06-10T07:46:29.753Z,48.93
2018-06-10T07:49:00.017Z,50.37
2018-06-10T07:58:34.717Z,49.10
2018-06-10T08:01:04.843Z,50.40
2018-06-10T08:03:35.330Z,52.23
2018-06-10T08:06:06.357Z,50.27
2018-06-10T08:08:36.987Z,50.40
2018-06-10T08:11:07.788Z,49.87
2018-06-10T08:13:38.572Z,50.47
2018-06-10T08:16:08.969Z,47.13
2018-06-10T08:18:39.015Z,48.43
2018-06-10T08:21:09.284Z,47.70
2018-06-10T08:23:39.474Z,48.53
2018-06-10T08:26:09.729Z,50.07
2018-06-10T08:28:40.693Z,49.63
2018-06-10T08:31:11.472Z,50.10
2018-06-10T08:33:41.879Z,48.77
2018-06-10T08:36:14.033Z,50.33
2018-06-10T08:38:44.083Z,51.40
2018-06-10T08:41:14.596Z,50.60
2018-06-10T08:43:44.856Z,51.30
2018-06-10T08:46:15.130Z,49.80
2018-06-10T08:48:46.009Z,49.80
2018-06-10T08:51:16.378Z,50.87
2018-06-10T08:53:46.591Z,50.30
2018-06-10T08:56:17.588Z,50.50
2018-06-10T08:58:48.655Z,50.47
2018-06-10T09:01:19.322Z,51.07
2018-06-10T09:03:49.848Z,50.33
2018-06-10T09:06:20.252Z,50.30
2018-06-10T09:08:50.325Z,50.23
2018-06-10T09:11:20.897Z,50.50
2018-06-10T09:13:50.941Z,50.00
2018-06-10T09:16:22.184Z,50.10
2018-06-10T09:18:55.168Z,50.77
2018-06-10T09:21:28.495Z,49.30
2018-06-10T09:23:58.850Z,50.67
2018-06-10T09:26:29.117Z,51.43
2018-06-10T09:28:59.855Z,50.80
2018-06-10T09:31:31.430Z,50.10
2018-06-10T09:34:02.495Z,52.53
2018-06-10T09:36:33.084Z,50.37
2018-06-10T09:39:04.088Z,50.57
2018-06-10T09:41:34.780Z,50.33
2018-06-10T09:44:06.197Z,50.03
2018-06-10T09:46:36.631Z,50.90
2018-06-10T09:49:08.746Z,49.80
2018-06-10T09:51:43.181Z,50.73
2018-06-10T09:54:13.890Z,50.03
2018-06-10T09:56:45.295Z,50.47
2018-06-10T09:59:15.823Z,50.03
2018-06-10T10:01:47.098Z,49.77
2018-06-10T10:04:18.119Z,49.43
2018-06-10T10:06:49.099Z,47.70
2018-06-10T10:09:19.889Z,47.67
2018-06-10T10:11:50.806Z,49.10
2018-06-10T10:14:21.388Z,48.83
2018-06-10T10:16:52.405Z,49.37
2018-06-10T10:19:26.754Z,49.23
2018-06-10T10:21:59.646Z,49.20
2018-06-10T10:24:37.680Z,48.23
2018-06-10T10:27:11.297Z,48.83
2018-06-10T10:29:44.700Z,48.80
2018-06-10T10:32:17.158Z,49.23
2018-06-10T10:34:53.995Z,49.53
2018-06-10T10:37:29.745Z,48.53
2018-06-10T10:40:03.400Z,50.43
2018-06-10T10:42:35.884Z,49.50
2018-06-10T10:45:11.544Z,49.63
2018-06-10T10:47:42.112Z,49.13
2018-06-10T10:50:12.831Z,49.47
2018-06-10T10:52:44.506Z,49.37
2018-06-10T10:55:14.520Z,49.03
2018-06-10T10:57:51.631Z,49.57
2018-06-10T11:00:21.987Z,49.93
2018-06-10T11:02:52.735Z,50.03
2018-06-10T11:05:23.995Z,49.63
2018-06-10T11:07:55.396Z,49.47
2018-06-10T11:10:26.378Z,49.77
2018-06-10T11:12:57.143Z,49.10
2018-06-10T11:15:28.164Z,49.53
2018-06-10T11:17:59.287Z,48.43
2018-06-10T11:20:29.802Z,50.07
2018-06-10T11:23:00.448Z,49.60
2018-06-10T11:25:31.896Z,49.03
2018-06-10T11:28:02.424Z,48.60
2018-06-10T11:30:34.203Z,47.63
2018-06-10T11:33:05.523Z,49.33
2018-06-10T11:35:36.366Z,49.00
2018-06-10T11:38:07.022Z,48.57
2018-06-10T11:40:37.604Z,47.07
2018-06-10T11:43:09.434Z,47.87
2018-06-10T11:45:39.964Z,47.40
2018-06-10T11:48:10.381Z,47.03
2018-06-10T11:50:40.945Z,47.87
2018-06-10T11:53:12.092Z,47.20
2018-06-10T11:55:42.977Z,49.80
2018-06-10T11:58:14.068Z,48.53
2018-06-10T12:00:44.603Z,46.90
2018-06-10T12:03:15.670Z,47.80
2018-06-10T12:05:47.095Z,47.90
2018-06-10T12:08:17.889Z,48.43
2018-06-10T12:10:48.732Z,48.33
2018-06-10T12:13:27.792Z,47.03
2018-06-10T12:16:08.376Z,47.03
2018-06-10T12:18:46.465Z,48.07
2018-06-10T12:21:20.118Z,48.93
2018-06-10T12:24:00.122Z,47.03
2018-06-10T12:26:35.267Z,46.87
2018-06-10T12:29:12.663Z,46.90
2018-06-10T12:31:46.253Z,45.77
2018-06-10T12:34:20.136Z,45.43
2018-06-10T12:36:57.748Z,47.03
2018-06-10T12:39:34.273Z,47.80
2018-06-10T12:42:17.249Z,47.23
2018-06-10T12:44:52.287Z,47.40
2018-06-10T12:47:28.128Z,47.27
2018-06-10T12:49:59.036Z,46.80
2018-06-10T12:52:30.839Z,47.40
2018-06-10T12:55:01.693Z,48.67
2018-06-10T12:57:32.027Z,48.50
2018-06-10T13:00:03.007Z,48.37
2018-06-10T13:02:33.929Z,47.10
2018-06-10T13:05:04.127Z,47.50
2018-06-10T13:07:35.542Z,47.07
2018-06-10T13:10:06.905Z,47.90
2018-06-10T13:12:37.872Z,47.97
2018-06-10T13:15:08.931Z,47.50
2018-06-10T13:17:40.557Z,47.37
2018-06-10T13:20:11.959Z,47.73
2018-06-10T13:22:43.664Z,48.17
2018-06-10T13:25:14.402Z,46.93
2018-06-10T13:27:45.415Z,47.43
2018-06-10T13:30:16.804Z,47.53
2018-06-10T13:32:47.502Z,47.63
2018-06-10T13:35:17.959Z,48.53
2018-06-10T13:37:49.180Z,48.70
2018-06-10T13:40:20.253Z,48.43
2018-06-10T13:42:52.196Z,47.53
2018-06-10T13:45:23.593Z,47.83
2018-06-10T13:47:55.313Z,48.93
2018-06-10T13:50:27.597Z,48.80
2018-06-10T13:53:01.232Z,49.27
2018-06-10T13:55:32.805Z,49.07
2018-06-10T13:58:03.410Z,49.10
2018-06-10T14:00:34.352Z,48.57
2018-06-10T14:03:05.903Z,50.27
2018-06-10T14:05:37.588Z,50.30
2018-06-10T14:08:08.452Z,50.53
2018-06-10T14:10:41.103Z,49.83
2018-06-10T14:13:11.947Z,49.57
2018-06-10T14:15:42.977Z,48.83
2018-06-10T14:18:16.075Z,48.90
2018-06-10T14:20:49.625Z,51.93
2018-06-10T14:23:21.044Z,49.63
2018-06-10T14:25:52.285Z,49.43
2018-06-10T14:28:22.647Z,49.47
2018-06-10T14:30:54.246Z,50.57
2018-06-10T14:33:24.544Z,49.90
2018-06-10T14:35:55.685Z,49.75
2018-06-10T14:38:26.012Z,49.33
2018-06-10T14:40:56.499Z,50.33
2018-06-10T14:43:27.882Z,49.63
2018-06-10T14:45:58.068Z,50.78
2018-06-10T14:48:29.739Z,49.65
2018-06-10T14:51:00.964Z,48.48
2018-06-10T14:53:31.980Z,49.25
2018-06-10T14:56:02.666Z,49.38
2018-06-10T14:58:33.972Z,49.48
2018-06-10T15:01:04.834Z,70.55
2018-06-10T15:03:35.504Z,49.08
2018-06-10T15:06:06.448Z,49.45
2018-06-10T15:08:37.140Z,49.08
2018-06-10T15:11:08.581Z,48.63
2018-06-10T15:13:39.822Z,49.10
2018-06-10T15:16:11.076Z,48.85
2018-06-10T15:18:41.854Z,49.58
2018-06-10T15:21:12.556Z,48.83
2018-06-10T15:23:43.701Z,49.58
2018-06-10T15:26:14.760Z,47.65
2018-06-10T15:28:46.329Z,49.08
2018-06-10T15:31:17.266Z,48.85
2018-06-10T15:33:48.071Z,47.78
2018-06-10T15:36:19.377Z,47.78
2018-06-10T15:38:50.058Z,46.83
2018-06-10T15:41:20.870Z,46.90
2018-06-10T15:43:52.015Z,47.55
2018-06-10T15:46:22.546Z,47.17
2018-06-10T15:48:53.031Z,47.23
2018-06-10T15:51:23.958Z,47.60
2018-06-10T15:53:55.289Z,47.03
2018-06-10T15:56:26.584Z,46.98
2018-06-10T15:58:57.236Z,47.85
2018-06-10T16:01:28.691Z,49.50
2018-06-10T16:03:59.709Z,46.08
2018-06-10T16:06:30.795Z,47.30
2018-06-10T16:09:01.046Z,47.33
2018-06-10T16:11:31.747Z,46.73
2018-06-10T16:14:02.966Z,47.05
2018-06-10T16:16:34.792Z,46.48
2018-06-10T16:19:07.167Z,46.83
2018-06-10T16:21:38.782Z,46.73
2018-06-10T16:24:10.065Z,46.37
2018-06-10T16:26:43.050Z,46.65
2018-06-10T16:29:13.677Z,46.58
2018-06-10T16:31:45.605Z,46.55
2018-06-10T16:34:15.707Z,47.70
2018-06-10T16:36:46.398Z,47.23
2018-06-10T16:39:16.831Z,47.58
2018-06-10T16:41:47.458Z,47.70
2018-06-10T16:44:17.907Z,47.50
2018-06-10T16:46:48.165Z,47.95
2018-06-10T16:49:18.901Z,47.35
2018-06-10T16:51:49.805Z,47.08
2018-06-10T16:54:20.271Z,47.60
2018-06-10T16:56:52.050Z,47.35
2018-06-10T16:59:23.316Z,47.23
2018-06-10T17:01:53.887Z,46.63
2018-06-10T17:04:25.245Z,48.08
2018-06-10T17:06:56.062Z,47.13
2018-06-10T17:09:26.682Z,47.57
2018-06-10T17:11:57.285Z,47.08
2018-06-10T17:14:27.504Z,47.47
2018-06-10T17:16:58.111Z,46.63
2018-06-10T17:19:28.716Z,46.40
2018-06-10T17:21:59.003Z,47.53
2018-06-10T17:24:30.263Z,46.77
2018-06-10T17:27:00.826Z,47.37
2018-06-10T17:29:32.690Z,46.70
2018-06-10T17:32:03.933Z,46.80
2018-06-10T17:34:34.200Z,46.40
2018-06-10T17:37:05.043Z,47.50
2018-06-10T17:39:35.361Z,46.58
2018-06-10T17:42:07.024Z,47.80
2018-06-10T17:44:38.191Z,46.85
2018-06-10T17:47:08.949Z,47.10
2018-06-10T17:49:40.097Z,46.45
2018-06-10T17:52:10.593Z,47.07
2018-06-10T17:54:40.739Z,46.80
2018-06-10T17:57:11.227Z,46.83
2018-06-10T17:59:42.006Z,47.27
2018-06-10T18:02:12.392Z,47.00
2018-06-10T18:04:43.328Z,47.17
2018-06-10T18:07:13.698Z,46.73
2018-06-10T18:09:43.926Z,46.57
2018-06-10T18:12:14.855Z,47.03
2018-06-10T18:14:45.179Z,46.87
2018-06-10T18:17:15.424Z,46.87
2018-06-10T18:19:45.807Z,46.67
2018-06-10T18:22:16.267Z,47.27
2018-06-10T18:24:46.682Z,46.97
2018-06-10T18:27:16.991Z,47.60
2018-06-10T18:29:48.009Z,47.03
2018-06-10T18:32:19.132Z,47.50
2018-06-10T18:34:49.498Z,46.97
2018-06-10T18:37:19.822Z,46.83
2018-06-10T18:39:50.536Z,46.73
2018-06-10T18:42:21.113Z,47.23
2018-06-10T18:44:52.212Z,47.33
2018-06-10T18:47:23.792Z,47.40
2018-06-10T18:49:54.334Z,47.10
2018-06-10T18:52:24.608Z,47.03
2018-06-10T18:54:55.753Z,47.83
2018-06-10T18:57:26.109Z,46.67
2018-06-10T18:59:57.402Z,48.13
2018-06-10T19:02:30.489Z,47.10
2018-06-10T19:05:01.978Z,47.43
2018-06-10T19:07:32.167Z,47.07
2018-06-10T19:10:02.525Z,46.87
2018-06-10T19:12:32.519Z,46.73
2018-06-10T19:15:03.433Z,47.33
2018-06-10T19:17:36.155Z,47.43
2018-06-10T19:20:07.059Z,47.13
2018-06-10T19:22:37.212Z,46.50
2018-06-10T19:25:10.243Z,47.00
2018-06-10T19:27:40.680Z,46.67
2018-06-10T19:30:11.004Z,47.53
2018-06-10T19:32:41.048Z,47.27
2018-06-10T19:35:12.772Z,46.27
2018-06-10T19:37:44.545Z,46.13
2018-06-10T19:40:15.082Z,46.37
2018-06-10T19:42:45.892Z,46.83
2018-06-10T19:45:15.927Z,46.80
2018-06-10T19:47:46.343Z,46.63
2018-06-10T19:50:16.905Z,46.57
2018-06-10T19:52:47.313Z,46.10
2018-06-10T19:55:18.337Z,45.47
2018-06-10T19:57:48.926Z,46.10
2018-06-10T20:00:19.155Z,45.70
2018-06-10T20:02:49.267Z,46.07
2018-06-10T20:05:20.075Z,46.20
2018-06-10T20:07:50.425Z,45.67
2018-06-10T20:10:21.125Z,45.67
2018-06-10T20:12:51.388Z,45.70
2018-06-10T20:15:22.613Z,45.20
2018-06-10T20:17:52.856Z,46.27
2018-06-10T20:20:23.418Z,45.37
2018-06-10T20:22:54.084Z,45.50
2018-06-10T20:25:24.983Z,45.63
2018-06-10T20:27:55.280Z,45.97
2018-06-10T20:30:25.537Z,45.33
2018-06-10T20:32:56.089Z,46.10
2018-06-10T20:35:26.174Z,45.80
2018-06-10T20:37:56.519Z,45.37
2018-06-10T20:40:27.594Z,44.63
2018-06-10T20:42:58.324Z,45.63
2018-06-10T20:45:32.049Z,44.13
2018-06-10T20:48:02.474Z,44.43
2018-06-10T20:50:32.833Z,44.00
2018-06-10T20:53:04.392Z,43.87
2018-06-10T20:55:35.412Z,45.17
2018-06-10T20:58:06.189Z,43.57
2018-06-10T21:00:36.403Z,44.47
2018-06-10T21:03:09.152Z,43.83
2018-06-10T21:05:40.237Z,44.03
2018-06-10T21:08:10.833Z,44.00
2018-06-10T21:10:42.576Z,43.43
2018-06-10T21:13:13.791Z,43.43
2018-06-10T21:15:45.580Z,43.57
2018-06-10T21:18:17.508Z,44.00
2018-06-10T21:20:50.356Z,43.93
2018-06-10T21:23:20.493Z,43.60
2018-06-10T21:25:51.003Z,43.93
2018-06-10T21:28:22.262Z,43.70
2018-06-10T21:30:53.289Z,43.80
2018-06-10T21:33:23.669Z,43.30
2018-06-10T21:35:53.744Z,43.50
2018-06-10T21:38:23.946Z,43.77
2018-06-10T21:40:54.274Z,43.83
2018-06-10T21:43:24.577Z,44.00
2018-06-10T21:45:55.148Z,44.30
2018-06-10T21:48:25.279Z,44.00
2018-06-10T21:50:55.374Z,43.80
2018-06-10T21:53:26.407Z,43.37
2018-06-10T21:55:57.629Z,44.13
2018-06-10T21:58:27.889Z,43.80
2018-06-10T22:00:59.202Z,43.93
2018-06-10T22:03:29.580Z,43.37
2018-06-10T22:06:00.090Z,45.17
2018-06-10T22:08:30.718Z,44.33
2018-06-10T22:11:02.600Z,45.07
2018-06-10T22:13:32.826Z,44.80
2018-06-10T22:16:03.454Z,44.30
2018-06-10T22:18:33.661Z,43.03
2018-06-10T22:21:04.557Z,43.70
2018-06-10T22:23:34.953Z,43.10
2018-06-10T22:26:05.756Z,43.03
2018-06-10T22:28:37.870Z,42.07
2018-06-10T22:31:08.548Z,43.63
2018-06-10T22:33:38.575Z,44.20
2018-06-10T22:36:08.893Z,50.37
2018-06-10T22:38:39.041Z,52.27
2018-06-10T22:41:09.473Z,50.87
2018-06-10T22:43:39.938Z,50.07
2018-06-10T22:46:10.043Z,45.27
2018-06-10T22:48:41.828Z,44.73
2018-06-10T22:51:13.483Z,43.30
2018-06-10T22:55:08.961Z,43.37
2018-06-10T22:57:39.605Z,43.60
2018-06-10T23:00:10.138Z,42.60
2018-06-10T23:02:41.132Z,43.27
2018-06-10T23:05:11.633Z,43.20
2018-06-10T23:07:43.618Z,43.37
2018-06-10T23:10:14.289Z,42.67
2018-06-10T23:12:44.764Z,42.40
2018-06-10T23:15:14.905Z,42.77
2018-06-10T23:17:46.054Z,42.73
2018-06-10T23:20:16.270Z,43.43
2018-06-10T23:22:48.625Z,43.53
2018-06-10T23:25:25.944Z,43.27
2018-06-10T23:27:56.511Z,43.17
2018-06-10T23:30:27.193Z,42.70
2018-06-10T23:32:57.676Z,43.77
2018-06-10T23:35:28.764Z,43.77
2018-06-10T23:37:59.323Z,43.73
2018-06-10T23:40:29.449Z,43.33
2018-06-10T23:43:06.447Z,42.90
2018-06-10T23:45:36.845Z,43.03
2018-06-10T23:48:07.425Z,43.13
2018-06-10T23:50:38.477Z,43.40
2018-06-10T23:53:09.536Z,43.30
2018-06-10T23:55:39.751Z,43.90
2018-06-10T23:58:09.975Z,43.50
